createdAt,value
2023-05-14T00:00:46.521Z,100.00
2023-05-14T00:03:14.420Z,100.00
2023-05-14T00:05:41.924Z,100.00
2023-05-14T00:08:09.331Z,100.00
2023-05-14T00:10:38.135Z,100.00
2023-05-14T00:13:05.857Z,100.00
2023-05-14T00:15:34.302Z,100.00
2023-05-14T00:18:02.481Z,100.00
2023-05-14T00:20:30.316Z,100.00
2023-05-14T00:22:57.578Z,100.00
2023-05-14T00:25:25.038Z,100.00
2023-05-14T00:27:53.855Z,100.00
2023-05-14T00:30:21.662Z,100.00
2023-05-14T00:32:52.157Z,100.00
2023-05-14T00:35:20.025Z,100.00
2023-05-14T00:37:47.593Z,100.00
2023-05-14T00:40:15.656Z,100.00
2023-05-14T00:42:43.251Z,100.00
2023-05-14T00:45:13.251Z,100.00
2023-05-14T00:47:41.023Z,100.00
2023-05-14T00:50:09.554Z,100.00
2023-05-14T00:52:38.002Z,100.00
2023-05-14T00:55:06.978Z,100.00
2023-05-14T00:57:35.364Z,100.00
2023-05-14T01:00:07.804Z,100.00
2023-05-14T01:02:38.259Z,100.00
2023-05-14T01:05:06.630Z,100.00
2023-05-14T01:07:39.760Z,100.00
2023-05-14T01:10:13.609Z,100.00
2023-05-14T01:12:52.341Z,100.00
2023-05-14T01:15:21.793Z,100.00
2023-05-14T01:17:54.493Z,100.00
2023-05-14T01:20:22.461Z,100.00
2023-05-14T01:22:51.802Z,100.00
2023-05-14T01:25:19.558Z,100.00
2023-05-14T01:27:53.035Z,100.00
2023-05-14T01:30:27.779Z,100.00
2023-05-14T01:32:59.275Z,100.00
2023-05-14T01:35:28.446Z,100.00
2023-05-14T01:38:02.673Z,100.00
2023-05-14T01:40:31.752Z,100.00
2023-05-14T01:42:59.649Z,100.00
2023-05-14T01:45:27.130Z,100.00
2023-05-14T01:47:54.663Z,100.00
2023-05-14T01:50:22.170Z,100.00
2023-05-14T01:52:49.600Z,100.00
2023-05-14T01:55:18.644Z,100.00
2023-05-14T01:57:46.375Z,100.00
2023-05-14T02:00:14.388Z,100.00
2023-05-14T02:02:41.644Z,100.00
2023-05-14T02:05:12.868Z,100.00
2023-05-14T02:07:40.439Z,100.00
2023-05-14T02:10:11.419Z,100.00
2023-05-14T02:12:40.299Z,100.00
2023-05-14T02:15:08.687Z,100.00
2023-05-14T02:17:36.760Z,100.00
2023-05-14T02:20:05.085Z,100.00
2023-05-14T02:22:32.717Z,100.00
2023-05-14T02:25:00.365Z,100.00
2023-05-14T02:27:27.773Z,100.00
2023-05-14T02:29:56.473Z,100.00
2023-05-14T02:32:23.968Z,100.00
2023-05-14T02:34:51.293Z,100.00
2023-05-14T02:37:18.829Z,100.00
2023-05-14T02:39:47.187Z,100.00
2023-05-14T02:42:16.444Z,100.00
2023-05-14T02:44:43.746Z,100.00
2023-05-14T02:47:14.552Z,100.00
2023-05-14T02:49:42.097Z,100.00
2023-05-14T02:52:09.615Z,100.00
2023-05-14T02:54:38.387Z,100.00
2023-05-14T02:57:05.795Z,100.00
2023-05-14T02:59:33.448Z,100.00
2023-05-14T03:02:01.498Z,100.00
2023-05-14T03:04:33.257Z,100.00
2023-05-14T03:07:00.658Z,100.00
2023-05-14T03:09:28.235Z,100.00
2023-05-14T03:11:57.211Z,100.00
2023-05-14T03:14:24.635Z,100.00
2023-05-14T03:16:52.970Z,100.00
2023-05-14T03:19:20.271Z,100.00
2023-05-14T03:21:49.139Z,100.00
2023-05-14T03:24:16.908Z,100.00
2023-05-14T03:26:46.542Z,100.00
2023-05-14T03:29:14.131Z,100.00
2023-05-14T03:31:41.563Z,100.00
2023-05-14T03:34:09.181Z,100.00
2023-05-14T03:36:36.608Z,100.00
2023-05-14T03:39:05.598Z,100.00
2023-05-14T03:41:33.139Z,100.00
2023-05-14T03:44:00.613Z,100.00
2023-05-14T03:46:28.197Z,100.00
2023-05-14T03:48:56.755Z,100.00
2023-05-14T03:51:24.758Z,100.00
2023-05-14T03:53:52.148Z,100.00
2023-05-14T03:56:22.185Z,100.00
2023-05-14T03:58:49.585Z,100.00
2023-05-14T04:01:17.065Z,100.00
2023-05-14T04:03:44.565Z,100.00
2023-05-14T04:06:14.550Z,100.00
2023-05-14T04:08:42.035Z,100.00
2023-05-14T04:11:09.758Z,100.00
2023-05-14T04:13:38.481Z,100.00
2023-05-14T04:16:06.376Z,100.00
2023-05-14T04:18:34.069Z,100.00
2023-05-14T04:21:01.655Z,100.00
2023-05-14T04:23:29.090Z,100.00
2023-05-14T04:25:56.643Z,100.00
2023-05-14T04:28:24.008Z,100.00
2023-05-14T04:30:53.121Z,100.00
2023-05-14T04:33:22.520Z,100.00
2023-05-14T04:35:50.046Z,100.00
2023-05-14T04:38:17.342Z,100.00
2023-05-14T04:40:44.791Z,100.00
2023-05-14T04:43:13.024Z,100.00
2023-05-14T04:45:40.587Z,100.00
2023-05-14T04:48:09.373Z,100.00
2023-05-14T04:50:38.802Z,100.00
2023-05-14T04:53:06.484Z,100.00
2023-05-14T04:55:33.825Z,100.00
2023-05-14T04:58:01.171Z,100.00
2023-05-14T05:00:28.655Z,100.00
2023-05-14T05:02:56.318Z,100.00
2023-05-14T05:05:27.255Z,100.00
2023-05-14T05:07:55.130Z,100.00
2023-05-14T05:10:26.422Z,100.00
2023-05-14T05:12:54.063Z,100.00
2023-05-14T05:15:21.461Z,100.00
2023-05-14T05:17:49.006Z,100.00
2023-05-14T05:20:17.777Z,100.00
2023-05-14T05:22:47.003Z,100.00
2023-05-14T05:25:15.286Z,100.00
2023-05-14T05:27:43.274Z,100.00
2023-05-14T05:30:14.591Z,100.00
2023-05-14T05:32:42.370Z,100.00
2023-05-14T05:35:10.018Z,100.00
2023-05-14T05:37:41.276Z,100.00
2023-05-14T05:40:10.804Z,100.00
2023-05-14T05:42:38.151Z,100.00
2023-05-14T05:45:06.980Z,100.00
2023-05-14T05:47:34.818Z,100.00
2023-05-14T05:50:02.382Z,100.00
2023-05-14T05:52:31.849Z,100.00
2023-05-14T05:54:59.306Z,100.00
2023-05-14T05:57:28.072Z,100.00
2023-05-14T05:59:55.459Z,100.00
2023-05-14T06:02:24.420Z,100.00
2023-05-14T06:04:51.950Z,100.00
2023-05-14T06:07:19.720Z,100.00
2023-05-14T06:09:47.356Z,100.00
2023-05-14T06:12:16.147Z,100.00
2023-05-14T06:14:52.566Z,100.00
2023-05-14T06:17:20.696Z,100.00
2023-05-14T06:19:49.847Z,100.00
2023-05-14T06:22:18.064Z,100.00
2023-05-14T06:24:45.402Z,100.00
2023-05-14T06:27:12.755Z,100.00
2023-05-14T06:29:40.267Z,100.00
2023-05-14T06:32:09.999Z,100.00
2023-05-14T06:34:38.519Z,100.00
2023-05-14T06:37:06.241Z,100.00
2023-05-14T06:39:33.652Z,100.00
2023-05-14T06:42:01.373Z,100.00
2023-05-14T06:44:31.531Z,100.00
2023-05-14T06:47:02.942Z,100.00
2023-05-14T06:49:34.341Z,100.00
2023-05-14T06:52:01.772Z,100.00
2023-05-14T06:54:29.565Z,100.00
2023-05-14T06:56:57.563Z,100.00
2023-05-14T06:59:24.796Z,100.00
2023-05-14T07:01:52.746Z,100.00
2023-05-14T07:04:20.273Z,100.00
2023-05-14T07:06:50.323Z,100.00
2023-05-14T07:09:18.193Z,100.00
2023-05-14T07:11:46.094Z,100.00
2023-05-14T07:14:13.392Z,100.00
2023-05-14T07:16:40.785Z,100.00
2023-05-14T07:19:08.395Z,100.00
2023-05-14T07:21:35.892Z,100.00
2023-05-14T07:24:05.381Z,100.00
2023-05-14T07:26:32.861Z,100.00
2023-05-14T07:29:00.205Z,100.00
2023-05-14T07:31:27.729Z,100.00
2023-05-14T07:33:55.114Z,100.00
2023-05-14T07:36:23.159Z,100.00
2023-05-14T07:38:50.596Z,100.00
2023-05-14T07:41:19.843Z,100.00
2023-05-14T07:43:47.128Z,100.00
2023-05-14T07:46:14.744Z,100.00
2023-05-14T07:48:42.077Z,100.00
2023-05-14T07:51:12.099Z,100.00
2023-05-14T07:53:39.915Z,100.00
2023-05-14T07:56:08.259Z,100.00
2023-05-14T07:58:36.889Z,100.00
2023-05-14T08:01:07.148Z,100.00
2023-05-14T08:03:34.783Z,100.00
2023-05-14T08:06:02.199Z,100.00
2023-05-14T08:08:29.748Z,100.00
2023-05-14T08:10:57.121Z,100.00
2023-05-14T08:13:24.579Z,100.00
2023-05-14T08:15:53.209Z,100.00
2023-05-14T08:18:23.258Z,100.00
2023-05-14T08:20:51.799Z,100.00
2023-05-14T08:23:21.194Z,100.00
2023-05-14T08:25:48.844Z,100.00
2023-05-14T08:28:16.228Z,100.00
2023-05-14T08:30:43.697Z,100.00
2023-05-14T08:33:12.470Z,100.00
2023-05-14T08:35:39.761Z,100.00
2023-05-14T08:38:07.133Z,100.00
2023-05-14T08:40:35.150Z,100.00
2023-05-14T08:43:04.075Z,100.00
2023-05-14T08:45:34.497Z,100.00
2023-05-14T08:48:07.253Z,100.00
2023-05-14T08:50:38.990Z,100.00
2023-05-14T08:53:08.454Z,100.00
2023-05-14T08:55:37.275Z,100.00
2023-05-14T08:58:04.700Z,100.00
2023-05-14T09:00:32.105Z,100.00
2023-05-14T09:03:00.644Z,100.00
2023-05-14T09:05:28.150Z,100.00
2023-05-14T09:07:57.023Z,100.00
2023-05-14T09:10:24.507Z,100.00
2023-05-14T09:12:52.052Z,100.00
2023-05-14T09:15:19.482Z,100.00
2023-05-14T09:17:46.993Z,100.00
2023-05-14T09:20:15.922Z,100.00
2023-05-14T09:22:43.280Z,100.00
2023-05-14T09:25:12.584Z,100.00
2023-05-14T09:27:39.853Z,100.00
2023-05-14T09:30:09.672Z,100.00
2023-05-14T09:32:38.751Z,100.00
2023-05-14T09:35:14.136Z,100.00
2023-05-14T09:37:42.778Z,100.00
2023-05-14T09:40:14.303Z,100.00
2023-05-14T09:42:45.439Z,100.00
2023-05-14T09:45:12.961Z,100.00
2023-05-14T09:47:40.719Z,100.00
2023-05-14T09:50:09.034Z,100.00
2023-05-14T09:52:38.048Z,100.00
2023-05-14T09:55:06.317Z,100.00
2023-05-14T09:57:35.116Z,100.00
2023-05-14T10:00:02.691Z,100.00
2023-05-14T10:02:36.567Z,100.00
2023-05-14T10:05:05.503Z,100.00
2023-05-14T10:07:38.617Z,100.00
2023-05-14T10:10:10.591Z,100.00
2023-05-14T10:12:41.140Z,100.00
2023-05-14T10:15:16.610Z,100.00
2023-05-14T10:17:49.785Z,100.00
2023-05-14T10:20:17.431Z,100.00
2023-05-14T10:22:45.082Z,100.00
2023-05-14T10:25:12.883Z,100.00
2023-05-14T10:27:42.346Z,100.00
2023-05-14T10:30:12.978Z,100.00
2023-05-14T10:32:40.845Z,100.00
2023-05-14T10:35:18.477Z,100.00
2023-05-14T10:37:46.553Z,100.00
2023-05-14T10:40:14.100Z,100.00
2023-05-14T10:42:43.832Z,100.00
2023-05-14T10:45:12.587Z,100.00
2023-05-14T10:47:42.351Z,100.00
2023-05-14T10:50:12.348Z,100.00
2023-05-14T10:52:41.953Z,100.00
2023-05-14T10:55:12.536Z,100.00
2023-05-14T10:57:42.598Z,100.00
2023-05-14T11:00:12.165Z,100.00
2023-05-14T11:02:41.237Z,100.00
2023-05-14T11:05:10.800Z,100.00
2023-05-14T11:07:39.838Z,100.00
2023-05-14T11:10:09.418Z,100.00
2023-05-14T11:12:38.160Z,100.00
2023-05-14T11:15:09.531Z,100.00
2023-05-14T11:17:38.835Z,100.00
2023-05-14T11:20:07.080Z,100.00
2023-05-14T11:22:36.945Z,100.00
2023-05-14T11:25:05.603Z,100.00
2023-05-14T11:27:35.092Z,100.00
2023-05-14T11:30:03.381Z,100.00
2023-05-14T11:32:33.350Z,100.00
2023-05-14T11:35:04.296Z,100.00
2023-05-14T11:37:31.596Z,100.00
2023-05-14T11:40:00.878Z,100.00
2023-05-14T11:42:28.581Z,100.00
2023-05-14T11:44:55.861Z,100.00
2023-05-14T11:47:23.324Z,100.00
2023-05-14T11:49:52.997Z,100.00
2023-05-14T11:52:20.843Z,100.00
2023-05-14T11:54:49.200Z,100.00
2023-05-14T11:57:19.216Z,100.00
2023-05-14T11:59:47.776Z,100.00
2023-05-14T12:02:17.523Z,100.00
2023-05-14T12:04:49.519Z,100.00
2023-05-14T12:07:18.317Z,100.00
2023-05-14T12:09:46.923Z,100.00
2023-05-14T12:12:14.317Z,100.00
2023-05-14T12:14:43.172Z,100.00
2023-05-14T12:17:12.806Z,100.00
2023-05-14T12:19:41.318Z,99.92
2023-05-14T12:22:10.417Z,100.00
2023-05-14T12:24:39.081Z,97.56
2023-05-14T12:27:07.213Z,100.00
2023-05-14T12:29:38.506Z,100.00
2023-05-14T12:32:09.043Z,100.00
2023-05-14T12:34:37.836Z,100.00
2023-05-14T12:37:07.210Z,100.00
2023-05-14T12:39:35.716Z,100.00
2023-05-14T12:42:04.453Z,100.00
2023-05-14T12:44:31.873Z,100.00
2023-05-14T12:46:59.771Z,98.76
2023-05-14T12:49:27.348Z,99.45
2023-05-14T12:52:07.819Z,96.84
2023-05-14T12:54:42.965Z,96.35
2023-05-14T12:57:11.745Z,96.53
2023-05-14T12:59:39.194Z,95.08
2023-05-14T13:02:07.487Z,89.35
2023-05-14T13:04:37.750Z,83.50
2023-05-14T13:07:05.415Z,82.43
2023-05-14T13:09:34.989Z,90.55
2023-05-14T13:12:03.597Z,86.83
2023-05-14T13:14:32.615Z,81.39
2023-05-14T13:17:00.112Z,85.49
2023-05-14T13:19:27.785Z,88.44
2023-05-14T13:22:04.970Z,82.29
2023-05-14T13:24:32.519Z,88.16
2023-05-14T13:27:00.400Z,87.53
2023-05-14T13:29:28.038Z,93.74
2023-05-14T13:31:59.457Z,83.75
2023-05-14T13:34:27.679Z,84.44
2023-05-14T13:36:57.974Z,86.71
2023-05-14T13:39:25.417Z,92.82
2023-05-14T13:41:56.757Z,89.91
2023-05-14T13:44:24.438Z,88.84
2023-05-14T13:46:59.842Z,86.34
2023-05-14T13:49:27.812Z,86.91
2023-05-14T13:51:58.107Z,89.55
2023-05-14T13:54:27.917Z,87.20
2023-05-14T13:56:58.772Z,90.20
2023-05-14T13:59:26.859Z,91.05
2023-05-14T14:01:54.809Z,91.27
2023-05-14T14:04:23.929Z,92.08
2023-05-14T14:06:51.623Z,90.88
2023-05-14T14:09:19.103Z,91.63
2023-05-14T14:11:48.880Z,91.34
2023-05-14T14:14:16.557Z,91.33
2023-05-14T14:16:47.122Z,92.99
2023-05-14T14:19:19.043Z,97.10
2023-05-14T14:21:56.603Z,93.75
2023-05-14T14:24:24.834Z,96.72
2023-05-14T14:26:54.959Z,97.63
2023-05-14T14:29:22.349Z,97.32
2023-05-14T14:31:49.780Z,98.09
2023-05-14T14:34:17.203Z,99.13
2023-05-14T14:36:44.867Z,99.19
2023-05-14T14:39:13.643Z,95.18
2023-05-14T14:41:41.284Z,97.44
2023-05-14T14:44:12.064Z,95.21
2023-05-14T14:46:39.722Z,96.03
2023-05-14T14:49:07.104Z,95.21
2023-05-14T14:51:37.805Z,96.34
2023-05-14T14:54:07.982Z,95.35
2023-05-14T14:56:38.044Z,96.19
2023-05-14T14:59:05.608Z,97.16
2023-05-14T15:01:33.522Z,96.43
2023-05-14T15:04:01.055Z,97.25
2023-05-14T15:06:28.669Z,96.31
2023-05-14T15:08:56.010Z,95.88
2023-05-14T15:11:23.696Z,94.23
2023-05-14T15:13:52.944Z,96.29
2023-05-14T15:16:23.669Z,94.70
2023-05-14T15:18:51.342Z,96.30
2023-05-14T15:21:22.384Z,94.46
2023-05-14T15:23:51.741Z,94.58
2023-05-14T15:26:28.818Z,94.21
2023-05-14T15:28:57.592Z,94.76
2023-05-14T15:31:27.881Z,94.73
2023-05-14T15:33:58.583Z,97.80
2023-05-14T15:36:26.050Z,99.01
2023-05-14T15:38:55.900Z,100.00
2023-05-14T15:41:30.784Z,97.94
2023-05-14T15:44:01.802Z,100.00
2023-05-14T15:46:29.405Z,97.67
2023-05-14T15:48:58.087Z,97.72
2023-05-14T15:51:30.694Z,98.37
2023-05-14T15:53:58.550Z,96.87
2023-05-14T15:56:26.230Z,97.38
2023-05-14T15:58:53.808Z,97.58
2023-05-14T16:01:22.786Z,100.00
2023-05-14T16:03:52.326Z,96.17
2023-05-14T16:06:19.767Z,97.91
2023-05-14T16:08:49.604Z,98.34
2023-05-14T16:11:17.442Z,97.27
2023-05-14T16:13:44.779Z,93.86
2023-05-14T16:16:12.850Z,93.98
2023-05-14T16:18:42.208Z,97.29
2023-05-14T16:21:11.817Z,100.00
2023-05-14T16:23:43.962Z,100.00
2023-05-14T16:26:11.457Z,100.00
2023-05-14T16:28:38.773Z,100.00
2023-05-14T16:31:06.249Z,100.00
2023-05-14T16:33:33.488Z,100.00
2023-05-14T16:36:02.410Z,100.00
2023-05-14T16:38:29.752Z,100.00
2023-05-14T16:41:00.276Z,100.00
2023-05-14T16:43:28.097Z,100.00
2023-05-14T16:46:01.237Z,100.00
2023-05-14T16:48:30.214Z,100.00
2023-05-14T16:50:58.791Z,100.00
2023-05-14T16:53:27.895Z,100.00
2023-05-14T16:55:55.723Z,100.00
2023-05-14T16:58:23.412Z,100.00
2023-05-14T17:00:51.358Z,100.00
2023-05-14T17:03:19.166Z,100.00
2023-05-14T17:05:46.514Z,100.00
2023-05-14T17:08:17.983Z,100.00
2023-05-14T17:10:54.094Z,100.00
2023-05-14T17:13:24.338Z,100.00
2023-05-14T17:15:51.687Z,100.00
2023-05-14T17:18:19.332Z,100.00
2023-05-14T17:20:49.548Z,100.00
2023-05-14T17:23:16.913Z,100.00
2023-05-14T17:25:44.375Z,100.00
2023-05-14T17:28:13.645Z,100.00
2023-05-14T17:30:44.107Z,100.00
2023-05-14T17:33:11.413Z,100.00
2023-05-14T17:35:38.863Z,100.00
2023-05-14T17:38:06.336Z,100.00
2023-05-14T17:40:36.536Z,100.00
2023-05-14T17:43:03.945Z,100.00
2023-05-14T17:45:42.727Z,100.00
2023-05-14T17:48:20.043Z,100.00
2023-05-14T17:50:47.314Z,100.00
2023-05-14T17:53:14.991Z,100.00
2023-05-14T17:55:42.347Z,100.00
2023-05-14T17:58:12.555Z,100.00
2023-05-14T18:00:44.268Z,100.00
2023-05-14T18:03:11.947Z,100.00
2023-05-14T18:05:41.783Z,100.00
2023-05-14T18:08:09.138Z,100.00
2023-05-14T18:10:36.599Z,100.00
2023-05-14T18:13:03.993Z,100.00
2023-05-14T18:15:31.380Z,100.00
2023-05-14T18:18:09.709Z,100.00
2023-05-14T18:20:37.141Z,100.00
2023-05-14T18:23:04.449Z,100.00
2023-05-14T18:25:32.084Z,100.00
2023-05-14T18:27:59.469Z,100.00
2023-05-14T18:30:28.064Z,100.00
2023-05-14T18:32:55.318Z,100.00
2023-05-14T18:35:26.731Z,100.00
2023-05-14T18:37:54.421Z,100.00
2023-05-14T18:40:21.726Z,100.00
2023-05-14T18:42:49.154Z,100.00
2023-05-14T18:45:16.525Z,100.00
2023-05-14T18:47:44.013Z,100.00
2023-05-14T18:50:11.533Z,100.00
2023-05-14T18:52:40.232Z,100.00
2023-05-14T18:55:08.384Z,100.00
2023-05-14T18:57:36.762Z,100.00
2023-05-14T19:00:04.639Z,100.00
2023-05-14T19:02:32.077Z,100.00
2023-05-14T19:04:59.385Z,100.00
2023-05-14T19:07:26.883Z,100.00
2023-05-14T19:09:55.507Z,100.00
2023-05-14T19:12:22.851Z,100.00
2023-05-14T19:14:50.105Z,100.00
2023-05-14T19:17:19.243Z,100.00
2023-05-14T19:19:47.851Z,100.00
2023-05-14T19:22:15.300Z,100.00
2023-05-14T19:24:42.838Z,100.00
2023-05-14T19:27:11.661Z,100.00
2023-05-14T19:29:39.125Z,100.00
2023-05-14T19:32:07.564Z,100.00
2023-05-14T19:34:35.106Z,100.00
2023-05-14T19:37:03.168Z,100.00
2023-05-14T19:39:30.616Z,100.00
2023-05-14T19:41:58.050Z,100.00
2023-05-14T19:44:26.772Z,100.00
2023-05-14T19:46:54.291Z,100.00
2023-05-14T19:49:21.780Z,100.00
2023-05-14T19:51:49.098Z,100.00
2023-05-14T19:54:17.348Z,100.00
2023-05-14T19:56:44.885Z,100.00
2023-05-14T19:59:12.660Z,100.00
2023-05-14T20:01:41.474Z,100.00
2023-05-14T20:04:09.017Z,100.00
2023-05-14T20:06:36.670Z,100.00
2023-05-14T20:09:03.873Z,100.00
2023-05-14T20:11:31.154Z,100.00
2023-05-14T20:13:58.379Z,100.00
2023-05-14T20:16:25.881Z,100.00
2023-05-14T20:18:54.768Z,100.00
2023-05-14T20:21:22.155Z,100.00
2023-05-14T20:23:49.432Z,100.00
2023-05-14T20:26:17.146Z,100.00
2023-05-14T20:28:44.521Z,100.00
2023-05-14T20:31:12.259Z,100.00
2023-05-14T20:33:39.707Z,100.00
2023-05-14T20:36:09.061Z,100.00
2023-05-14T20:38:36.707Z,100.00
2023-05-14T20:41:04.045Z,100.00
2023-05-14T20:43:31.654Z,100.00
2023-05-14T20:45:59.187Z,100.00
2023-05-14T20:48:26.986Z,100.00
2023-05-14T20:50:57.325Z,100.00
2023-05-14T20:53:27.200Z,100.00
2023-05-14T20:55:54.851Z,100.00
2023-05-14T20:58:22.186Z,100.00
2023-05-14T21:00:49.807Z,100.00
2023-05-14T21:03:17.224Z,100.00
2023-05-14T21:05:44.879Z,100.00
2023-05-14T21:08:12.181Z,100.00
2023-05-14T21:10:40.820Z,100.00
2023-05-14T21:13:08.344Z,100.00
2023-05-14T21:15:35.876Z,100.00
2023-05-14T21:18:04.135Z,100.00
2023-05-14T21:20:31.471Z,100.00
2023-05-14T21:22:58.739Z,100.00
2023-05-14T21:25:26.943Z,100.00
2023-05-14T21:27:56.072Z,100.00
2023-05-14T21:30:23.509Z,100.00
2023-05-14T21:32:50.827Z,100.00
2023-05-14T21:35:18.293Z,100.00
2023-05-14T21:37:45.670Z,100.00
2023-05-14T21:40:13.390Z,100.00
2023-05-14T21:42:40.749Z,100.00
2023-05-14T21:45:10.514Z,100.00
2023-05-14T21:47:38.128Z,100.00
2023-05-14T21:50:09.229Z,100.00
2023-05-14T21:52:36.981Z,100.00
2023-05-14T21:55:04.954Z,100.00
2023-05-14T21:57:34.680Z,100.00
2023-05-14T22:00:02.328Z,100.00
2023-05-14T22:02:33.299Z,100.00
2023-05-14T22:05:00.685Z,100.00
2023-05-14T22:07:28.060Z,100.00
2023-05-14T22:09:55.378Z,100.00
2023-05-14T22:12:22.739Z,100.00
2023-05-14T22:14:50.389Z,100.00
2023-05-14T22:17:17.710Z,100.00
2023-05-14T22:19:46.417Z,100.00
2023-05-14T22:22:13.704Z,100.00
2023-05-14T22:24:41.195Z,100.00
2023-05-14T22:27:08.519Z,100.00
2023-05-14T22:29:38.149Z,100.00
2023-05-14T22:32:06.664Z,100.00
2023-05-14T22:34:34.084Z,100.00
2023-05-14T22:37:02.851Z,100.00
2023-05-14T22:39:30.288Z,100.00
2023-05-14T22:41:57.666Z,100.00
2023-05-14T22:44:25.800Z,100.00
2023-05-14T22:46:53.983Z,100.00
2023-05-14T22:49:21.427Z,100.00
2023-05-14T22:51:48.692Z,100.00
2023-05-14T22:54:17.611Z,100.00
2023-05-14T22:56:45.692Z,100.00
2023-05-14T22:59:13.170Z,100.00
2023-05-14T23:01:40.387Z,100.00
2023-05-14T23:04:07.769Z,100.00
2023-05-14T23:06:35.365Z,100.00
2023-05-14T23:09:02.721Z,100.00
2023-05-14T23:11:31.332Z,100.00
2023-05-14T23:13:58.707Z,100.00
2023-05-14T23:16:25.967Z,100.00
2023-05-14T23:18:53.439Z,100.00
2023-05-14T23:21:20.940Z,100.00
2023-05-14T23:23:48.252Z,100.00
2023-05-14T23:26:15.872Z,100.00
2023-05-14T23:28:44.714Z,100.00
2023-05-14T23:31:13.135Z,100.00
2023-05-14T23:33:40.460Z,100.00
2023-05-14T23:36:08.555Z,100.00
2023-05-14T23:38:36.522Z,100.00
2023-05-14T23:41:04.018Z,100.00
2023-05-14T23:43:31.353Z,100.00
2023-05-14T23:46:00.213Z,100.00
2023-05-14T23:48:27.747Z,100.00
2023-05-14T23:50:55.164Z,100.00
2023-05-14T23:53:23.080Z,100.00
2023-05-14T23:55:50.500Z,100.00
2023-05-14T23:58:17.925Z,100.00
